Time;durP1;ratioP1;P1;durP2;ratioP2;P2;SDS_P1;SDS_P2;PMS_P1;PMS_P2;Temp;Humidity;BMP_temperature;BMP_pressure;BME280_temperature;BME280_humidity;BME280_pressure;Samples;Min_cycle;Max_cycle;Signal;HPM_P1;HPM_P2
2022/07/19 00:02:56;;;;;;;3.30;2.40;;;22.80;99.90;;;;;;13107846;22;20234;-79
2022/07/19 00:07:59;;;;;;;4.00;2.45;;;22.80;99.90;;;;;;13108211;22;20203;-78
2022/07/19 00:13:01;;;;;;;2.70;2.17;;;22.70;99.90;;;;;;13108229;22;20566;-78
2022/07/19 00:18:05;;;;;;;2.70;2.20;;;22.70;99.90;;;;;;13108217;22;20572;-78
2022/07/19 00:23:07;;;;;;;3.20;1.88;;;22.70;99.90;;;;;;13107605;22;20168;-78
2022/07/19 00:28:10;;;;;;;3.15;1.80;;;22.70;99.90;;;;;;13126942;22;20165;-79
2022/07/19 00:33:12;;;;;;;3.88;2.42;;;22.70;99.90;;;;;;13107700;22;20168;-79
2022/07/19 00:38:15;;;;;;;3.55;2.40;;;22.70;99.90;;;;;;13106697;22;20592;-79
2022/07/19 00:43:17;;;;;;;5.45;2.53;;;22.70;99.90;;;;;;13110108;22;20164;-79
2022/07/19 00:48:21;;;;;;;5.13;2.22;;;22.70;99.90;;;;;;13129115;22;20210;-79
2022/07/19 00:53:24;;;;;;;2.85;1.90;;;22.70;99.90;;;;;;13110881;22;20218;-78
2022/07/19 00:58:27;;;;;;;3.13;2.33;;;22.70;99.90;;;;;;13083661;22;20234;-78
2022/07/19 01:03:30;;;;;;;2.92;2.55;;;22.70;99.90;;;;;;13084188;22;20502;-78
2022/07/19 01:08:33;;;;;;;5.28;2.30;;;22.70;99.90;;;;;;13083389;22;20241;-79
2022/07/19 01:13:35;;;;;;;4.57;3.33;;;22.70;99.90;;;;;;13109761;22;20169;-78
2022/07/19 01:18:38;;;;;;;3.72;2.08;;;22.60;99.90;;;;;;13105553;22;20196;-78
2022/07/19 01:23:40;;;;;;;2.22;1.83;;;22.60;99.90;;;;;;13110912;22;20169;-78
2022/07/19 01:28:44;;;;;;;2.70;2.40;;;22.60;99.90;;;;;;13109510;22;20502;-79
2022/07/19 01:33:46;;;;;;;2.78;2.10;;;22.60;99.90;;;;;;13083297;22;20169;-78
2022/07/19 01:38:49;;;;;;;2.60;1.70;;;22.60;99.90;;;;;;13110338;22;20188;-79
2022/07/19 01:43:51;;;;;;;2.83;1.92;;;22.60;99.90;;;;;;13055676;22;20177;-78
2022/07/19 01:48:54;;;;;;;2.63;1.75;;;22.60;99.90;;;;;;13110132;22;20192;-79
2022/07/19 01:53:56;;;;;;;2.40;1.83;;;22.60;99.90;;;;;;13109916;22;20225;-78
2022/07/19 01:58:59;;;;;;;2.80;2.42;;;22.60;99.90;;;;;;13082698;22;20192;-78
2022/07/19 02:04:01;;;;;;;2.58;2.20;;;22.60;99.90;;;;;;13082815;22;20221;-78
2022/07/19 02:09:04;;;;;;;3.55;2.30;;;22.50;99.90;;;;;;13109309;22;20226;-78
2022/07/19 02:14:08;;;;;;;2.80;1.98;;;22.50;99.90;;;;;;13081107;22;20552;-79
2022/07/19 02:19:11;;;;;;;1.80;1.63;;;22.50;99.90;;;;;;13109746;22;20207;-79
2022/07/19 02:24:14;;;;;;;2.47;2.00;;;22.50;99.90;;;;;;13082476;22;20210;-79
2022/07/19 02:29:16;;;;;;;2.40;1.85;;;22.50;99.90;;;;;;13081086;22;20165;-79
2022/07/19 02:34:19;;;;;;;2.95;2.28;;;22.50;99.90;;;;;;13109461;22;20218;-78
2022/07/19 02:39:22;;;;;;;2.67;2.10;;;22.50;99.90;;;;;;13081059;22;20181;-78
2022/07/19 02:44:26;;;;;;;2.47;2.20;;;22.40;99.90;;;;;;13080240;22;20168;-78
2022/07/19 02:49:29;;;;;;;1.90;1.80;;;22.40;99.90;;;;;;13081348;22;20180;-78
2022/07/19 02:54:31;;;;;;;4.82;2.55;;;22.40;99.90;;;;;;13083560;22;20397;-78
2022/07/19 02:59:34;;;;;;;2.97;2.20;;;22.30;99.90;;;;;;13108358;22;20386;-78
2022/07/19 03:04:36;;;;;;;4.40;2.05;;;22.30;99.90;;;;;;13080738;22;20169;-78
2022/07/19 03:09:39;;;;;;;3.83;2.33;;;22.30;99.90;;;;;;13081070;22;20236;-78
2022/07/19 03:14:42;;;;;;;2.13;1.92;;;22.30;99.90;;;;;;13127792;22;20230;-78
2022/07/19 03:19:45;;;;;;;2.47;2.28;;;22.40;99.90;;;;;;13108363;22;20168;-78
2022/07/19 03:24:48;;;;;;;3.13;2.15;;;22.30;99.90;;;;;;13108279;22;20169;-78
2022/07/19 03:29:51;;;;;;;3.05;2.45;;;22.30;99.90;;;;;;13098144;22;20554;-78
2022/07/19 03:34:53;;;;;;;4.00;2.40;;;22.30;99.90;;;;;;13080799;22;20191;-78
2022/07/19 03:39:56;;;;;;;2.30;2.10;;;22.40;99.90;;;;;;13081014;22;20222;-78
2022/07/19 03:44:58;;;;;;;2.30;2.10;;;22.40;99.90;;;;;;13097981;22;20169;-79
2022/07/19 03:50:01;;;;;;;2.03;1.83;;;22.40;99.90;;;;;;13108534;22;20164;-79
2022/07/19 03:55:03;;;;;;;2.35;2.13;;;22.40;99.90;;;;;;13080377;22;20249;-79
2022/07/19 04:00:07;;;;;;;2.10;1.90;;;22.40;99.90;;;;;;13119920;22;20192;-78
2022/07/19 04:05:18;;;;;;;3.03;2.53;;;22.40;99.90;;;;;;13129329;22;20229;-78
2022/07/19 04:10:21;;;;;;;3.58;2.05;;;22.40;99.90;;;;;;13080014;22;20235;-78
2022/07/19 04:15:23;;;;;;;2.25;1.83;;;22.40;99.90;;;;;;13108875;22;20637;-78
2022/07/19 04:20:26;;;;;;;2.28;2.08;;;22.40;99.90;;;;;;13110817;22;20418;-78
2022/07/19 04:25:29;;;;;;;2.30;1.92;;;22.30;99.90;;;;;;13102480;22;20165;-78
2022/07/19 04:30:31;;;;;;;2.97;2.03;;;22.30;99.90;;;;;;13084125;22;20194;-78
2022/07/19 04:35:34;;;;;;;1.90;1.58;;;22.30;99.90;;;;;;13084760;22;20233;-78
2022/07/19 04:40:37;;;;;;;4.63;2.13;;;22.30;99.90;;;;;;13130695;22;20541;-78
2022/07/19 04:45:41;;;;;;;2.58;1.88;;;22.50;99.90;;;;;;13082299;22;20176;-78
2022/07/19 04:50:44;;;;;;;3.70;2.50;;;22.40;99.90;;;;;;13102396;22;20562;-79
2022/07/19 04:55:46;;;;;;;2.85;2.08;;;22.40;99.90;;;;;;13082307;22;20230;-78
2022/07/19 05:00:49;;;;;;;3.03;1.95;;;22.40;99.90;;;;;;13110617;22;20226;-79
2022/07/19 05:05:52;;;;;;;3.20;2.17;;;22.40;99.90;;;;;;13110844;22;20229;-78
2022/07/19 05:10:54;;;;;;;2.28;2.05;;;22.40;99.90;;;;;;13128274;22;20533;-78
2022/07/19 05:15:59;;;;;;;1.98;1.85;;;22.50;99.90;;;;;;13082047;22;20204;-78
2022/07/19 05:21:02;;;;;;;2.83;2.42;;;22.50;99.90;;;;;;13110486;22;20165;-78
2022/07/19 05:26:04;;;;;;;2.30;2.00;;;22.50;99.90;;;;;;13083123;22;20165;-78
2022/07/19 05:31:07;;;;;;;2.53;2.17;;;22.50;99.90;;;;;;13081953;22;20560;-78
2022/07/19 05:36:10;;;;;;;2.00;1.90;;;22.50;99.90;;;;;;13110971;22;20189;-79
2022/07/19 05:41:15;;;;;;;2.10;1.90;;;22.50;99.90;;;;;;13081224;22;20172;-79
2022/07/19 05:46:25;;;;;;;3.03;2.28;;;22.50;99.90;;;;;;13082311;22;20576;-79
2022/07/19 05:51:28;;;;;;;2.40;2.00;;;22.50;99.90;;;;;;13109704;22;20217;-78
2022/07/19 05:56:31;;;;;;;2.33;1.83;;;22.50;99.90;;;;;;13081159;22;20230;-79
2022/07/19 06:01:33;;;;;;;2.55;2.30;;;22.60;99.90;;;;;;13108948;22;20525;-78
2022/07/19 06:06:36;;;;;;;3.20;2.33;;;22.60;99.90;;;;;;13054790;22;20595;-79
2022/07/19 06:11:43;;;;;;;3.63;2.33;;;22.30;99.90;;;;;;13105951;22;20168;-78
2022/07/19 06:16:45;;;;;;;3.30;2.45;;;22.50;99.90;;;;;;13109078;22;20188;-78
2022/07/19 06:21:48;;;;;;;3.78;2.42;;;22.60;99.90;;;;;;13080838;22;20210;-78
2022/07/19 06:26:50;;;;;;;8.10;4.85;;;22.70;99.90;;;;;;13109670;22;20164;-78
2022/07/19 06:37:37;;;;;;;6.30;3.90;;;22.50;99.90;;;;;;13056474;22;20269;-93
2022/07/19 06:42:40;;;;;;;9.85;4.50;;;22.70;99.90;;;;;;13125725;22;20475;-92
2022/07/19 06:47:42;;;;;;;13.55;4.38;;;22.90;99.90;;;;;;13122040;22;20479;-96
2022/07/19 06:52:45;;;;;;;14.70;4.22;;;23.10;99.90;;;;;;13123477;22;20168;-95
2022/07/19 06:57:47;;;;;;;9.52;3.78;;;23.20;99.90;;;;;;13121186;22;20188;-95
2022/07/19 07:02:50;;;;;;;13.77;5.45;;;23.30;99.90;;;;;;13096748;22;20222;-94
2022/07/19 07:07:54;;;;;;;6.75;3.75;;;23.40;99.90;;;;;;13117441;22;20173;-93
2022/07/19 07:12:56;;;;;;;10.23;4.03;;;23.60;99.90;;;;;;13093308;22;20164;-94
2022/07/19 07:17:59;;;;;;;6.32;3.97;;;23.70;99.90;;;;;;13113452;22;20188;-92
2022/07/19 07:23:02;;;;;;;16.67;4.70;;;23.70;99.90;;;;;;13118103;22;20168;-93
2022/07/19 07:28:05;;;;;;;6.78;4.30;;;23.70;99.90;;;;;;13090270;22;20164;-92
2022/07/19 07:33:08;;;;;;;12.98;5.20;;;24.00;99.90;;;;;;13117030;22;20479;-94
2022/07/19 07:38:10;;;;;;;7.32;4.85;;;24.00;99.90;;;;;;13087680;22;20230;-90
2022/07/19 07:43:13;;;;;;;12.13;5.60;;;24.00;99.90;;;;;;13116892;22;20161;-90
2022/07/19 07:48:16;;;;;;;17.70;6.22;;;24.10;99.90;;;;;;13087971;22;20176;-91
2022/07/19 07:53:20;;;;;;;12.10;5.35;;;24.30;99.90;;;;;;13122943;22;20218;-92
2022/07/19 07:58:23;;;;;;;14.73;3.53;;;24.40;99.90;;;;;;13153384;22;20209;-94
2022/07/19 08:03:26;;;;;;;8.57;3.53;;;24.70;92.40;;;;;;13140873;22;20160;-90
2022/07/19 08:08:29;;;;;;;6.43;3.50;;;24.90;92.90;;;;;;13067023;22;20245;-89
2022/07/19 08:13:31;;;;;;;6.40;3.00;;;25.10;90.50;;;;;;13093561;22;20221;-89
2022/07/19 08:18:34;;;;;;;7.70;3.22;;;25.50;90.30;;;;;;13121549;22;20253;-89
2022/07/19 08:23:41;;;;;;;8.48;3.03;;;25.80;90.20;;;;;;13135456;22;20543;-90
2022/07/19 08:28:46;;;;;;;5.90;2.75;;;25.90;87.40;;;;;;13093845;22;20176;-89
2022/07/19 08:33:49;;;;;;;9.90;2.55;;;26.00;88.30;;;;;;13095083;22;20165;-89
2022/07/19 08:38:51;;;;;;;5.18;3.08;;;26.20;80.90;;;;;;13095105;22;20230;-89
2022/07/19 08:43:54;;;;;;;7.70;3.88;;;26.10;89.00;;;;;;13122296;22;20194;-89
2022/07/19 08:48:58;;;;;;;5.95;2.90;;;25.80;85.40;;;;;;13095111;22;20235;-89
2022/07/19 08:54:01;;;;;;;8.95;3.03;;;26.40;80.60;;;;;;13093216;22;20233;-89
2022/07/19 08:59:04;;;;;;;3.13;2.13;;;26.40;79.60;;;;;;13122186;22;20184;-89
2022/07/19 09:04:17;;;;;;;6.05;2.90;;;26.60;75.30;;;;;;13092809;22;20156;-89
2022/07/19 09:09:31;;;;;;;6.85;3.42;;;26.40;75.50;;;;;;13118321;22;20552;-89
2022/07/19 09:14:36;;;;;;;7.07;3.08;;;26.90;77.70;;;;;;13136463;22;20214;-89
2022/07/19 09:19:41;;;;;;;5.22;3.15;;;26.90;81.00;;;;;;13136321;22;20230;-89
2022/07/19 09:24:50;;;;;;;3.38;3.08;;;26.70;77.40;;;;;;13090672;22;20498;-89
2022/07/19 09:29:54;;;;;;;3.72;2.85;;;26.50;84.40;;;;;;13090912;22;20560;-89
2022/07/19 09:35:03;;;;;;;7.72;2.92;;;26.70;73.80;;;;;;13089722;22;20172;-89
2022/07/19 09:40:08;;;;;;;6.85;2.67;;;26.80;77.40;;;;;;13089207;22;20258;-88
2022/07/19 09:45:12;;;;;;;11.82;2.40;;;26.70;76.60;;;;;;13117858;22;20198;-89
2022/07/19 09:50:17;;;;;;;3.60;2.40;;;26.60;74.90;;;;;;13117637;22;20160;-89
2022/07/19 09:55:20;;;;;;;3.47;2.80;;;27.40;72.20;;;;;;13117445;22;20164;-89
2022/07/19 10:00:24;;;;;;;8.70;2.63;;;26.90;77.10;;;;;;13117113;22;20561;-89
2022/07/19 10:05:28;;;;;;;2.67;2.03;;;27.50;75.70;;;;;;13090268;22;20161;-89
2022/07/19 10:10:31;;;;;;;6.32;2.88;;;28.00;67.70;;;;;;13088195;22;20180;-89
2022/07/19 10:15:39;;;;;;;4.00;2.63;;;28.10;64.30;;;;;;13089720;22;20214;-89
2022/07/19 10:20:46;;;;;;;4.78;2.60;;;27.60;71.10;;;;;;13088989;22;20354;-90
2022/07/19 10:25:49;;;;;;;4.15;3.05;;;28.10;67.30;;;;;;13088606;22;20207;-89
2022/07/19 10:30:52;;;;;;;8.20;2.25;;;28.30;72.20;;;;;;13117145;22;20552;-89
2022/07/19 10:35:55;;;;;;;7.72;2.97;;;27.50;69.90;;;;;;13088492;22;20176;-89
2022/07/19 10:40:58;;;;;;;5.13;2.65;;;;;;;;;;13116840;22;20193;-89
2022/07/19 10:46:01;;;;;;;4.85;2.17;;;27.90;65.40;;;;;;13116769;22;20183;-89
2022/07/19 10:51:05;;;;;;;4.63;2.65;;;27.50;70.50;;;;;;13116376;22;20165;-90
2022/07/19 10:56:23;;;;;;;3.42;2.17;;;28.20;66.30;;;;;;13092807;22;20165;-89
2022/07/19 11:01:28;;;;;;;11.93;2.17;;;28.40;67.70;;;;;;13089206;22;20214;-88
2022/07/19 11:06:30;;;;;;;5.72;1.92;;;28.00;65.30;;;;;;13116243;22;20237;-89
2022/07/19 11:11:33;;;;;;;3.08;2.50;;;28.60;63.50;;;;;;13062515;22;20210;-89
2022/07/19 11:16:35;;;;;;;6.15;2.42;;;27.80;72.70;;;;;;13134694;22;20177;-89
2022/07/19 11:21:41;;;;;;;2.65;2.38;;;28.00;59.90;;;;;;13116262;22;20187;-89
2022/07/19 11:26:44;;;;;;;4.57;2.38;;;27.20;68.50;;;;;;13088545;22;20553;-90
2022/07/19 11:31:50;;;;;;;6.32;2.25;;;28.00;62.00;;;;;;13133530;22;20217;-89
2022/07/19 11:36:57;;;;;;;2.75;2.38;;;28.20;64.50;;;;;;13087688;22;20654;-89
2022/07/19 11:42:00;;;;;;;2.75;2.00;;;27.80;71.20;;;;;;13088655;22;20164;-89
2022/07/19 11:47:02;;;;;;;3.40;2.38;;;27.50;67.40;;;;;;13115878;22;20194;-89
2022/07/19 11:52:05;;;;;;;2.88;2.10;;;27.60;68.90;;;;;;13115318;22;20210;-89
2022/07/19 11:57:24;;;;;;;4.18;2.45;;;27.60;72.80;;;;;;13106386;22;20184;-88
2022/07/19 12:02:26;;;;;;;4.05;2.00;;;27.80;68.70;;;;;;13107275;22;20499;-89
2022/07/19 12:07:29;;;;;;;3.60;2.28;;;28.60;62.70;;;;;;13115601;22;20222;-89
2022/07/19 12:12:41;;;;;;;5.82;3.50;;;29.00;57.80;;;;;;13088404;22;20259;-89
2022/07/19 12:17:57;;;;;;;10.55;2.90;;;28.60;61.50;;;;;;13087453;22;20511;-89
2022/07/19 12:23:14;;;;;;;4.25;2.70;;;28.40;60.00;;;;;;13132415;22;20196;-89
2022/07/19 12:28:25;;;;;;;12.80;2.80;;;28.30;63.00;;;;;;13087755;22;20299;-89
2022/07/19 12:33:28;;;;;;;2.58;2.03;;;28.50;65.40;;;;;;13135359;22;20199;-89
2022/07/19 12:38:32;;;;;;;4.32;2.90;;;28.50;66.00;;;;;;13116874;22;20196;-89
2022/07/19 12:43:35;;;;;;;5.18;2.83;;;28.90;61.00;;;;;;13118695;22;20506;-89
2022/07/19 12:48:38;;;;;;;3.72;1.95;;;28.60;64.90;;;;;;13118664;22;20506;-89
2022/07/19 12:53:40;;;;;;;3.30;2.45;;;28.60;65.60;;;;;;13118672;22;20164;-89
2022/07/19 13:04:04;;;;;;;7.53;3.47;;;29.10;62.60;;;;;;13137777;22;20506;-89
2022/07/19 13:09:06;;;;;;;4.20;2.42;;;29.40;61.60;;;;;;13091210;22;20218;-89
2022/07/19 13:14:11;;;;;;;3.42;2.72;;;29.40;59.30;;;;;;13064442;22;20643;-89
2022/07/19 13:19:13;;;;;;;6.55;3.05;;;29.20;56.20;;;;;;13090708;22;20238;-89
2022/07/19 13:24:16;;;;;;;4.15;2.25;;;29.70;56.70;;;;;;13063983;22;20704;-89
2022/07/19 13:29:38;;;;;;;3.80;2.85;;;29.10;61.10;;;;;;13068971;22;20176;-89
2022/07/19 13:34:41;;;;;;;5.05;3.15;;;29.60;56.50;;;;;;13118102;22;20165;-89
2022/07/19 13:39:46;;;;;;;7.47;2.85;;;30.10;54.00;;;;;;13050168;22;20197;-88
2022/07/19 13:44:49;;;;;;;4.28;2.53;;;29.20;55.20;;;;;;13053252;22;20161;-89
2022/07/19 13:49:52;;;;;;;6.13;2.80;;;29.90;60.20;;;;;;13052541;22;20165;-89
2022/07/19 13:54:54;;;;;;;4.22;2.28;;;29.90;55.20;;;;;;13053072;22;20173;-89
2022/07/19 13:59:57;;;;;;;3.83;2.45;;;29.90;58.70;;;;;;13053001;22;20537;-89
2022/07/19 14:04:59;;;;;;;3.60;1.77;;;30.30;57.20;;;;;;13052671;22;20468;-89
2022/07/19 14:10:03;;;;;;;3.03;2.30;;;29.50;55.30;;;;;;13052569;22;20169;-89
2022/07/19 14:15:07;;;;;;;7.18;2.47;;;29.10;59.50;;;;;;13052538;22;20230;-89
2022/07/19 14:20:10;;;;;;;5.00;3.15;;;29.30;57.00;;;;;;13052538;22;20226;-88
2022/07/19 14:25:12;;;;;;;7.30;3.45;;;29.40;55.00;;;;;;13050117;22;20697;-89
2022/07/19 14:30:15;;;;;;;2.40;2.17;;;29.90;55.60;;;;;;13050042;22;20234;-89
2022/07/19 14:35:18;;;;;;;3.97;2.75;;;28.80;62.30;;;;;;13052037;22;20542;-89
2022/07/19 14:40:20;;;;;;;2.10;1.90;;;28.70;61.30;;;;;;13100125;22;20530;-89
2022/07/19 14:45:23;;;;;;;4.35;2.72;;;28.00;62.30;;;;;;13116662;22;20214;-89
2022/07/19 14:50:25;;;;;;;3.72;2.80;;;28.20;65.80;;;;;;13116612;22;20530;-89
2022/07/19 14:55:28;;;;;;;2.88;2.22;;;27.60;62.80;;;;;;13089022;22;20194;-89
2022/07/19 15:00:31;;;;;;;4.60;2.15;;;27.90;67.80;;;;;;13088681;22;20188;-89
2022/07/19 15:05:34;;;;;;;6.65;2.85;;;27.90;65.10;;;;;;13116449;22;20164;-89
2022/07/19 15:10:36;;;;;;;4.78;2.47;;;28.30;65.00;;;;;;13088993;22;20169;-89
2022/07/19 15:15:39;;;;;;;6.13;2.72;;;27.80;67.40;;;;;;13088746;22;20214;-89
2022/07/19 15:20:42;;;;;;;4.88;2.60;;;28.80;59.50;;;;;;13088840;22;20184;-90
2022/07/19 15:25:44;;;;;;;4.85;2.80;;;28.70;61.60;;;;;;13115930;22;20168;-89
2022/07/19 15:30:47;;;;;;;5.03;2.10;;;28.70;59.60;;;;;;13116643;22;20498;-89
2022/07/19 15:35:49;;;;;;;10.13;3.00;;;29.30;63.00;;;;;;13062463;22;20484;-89
2022/07/19 15:40:52;;;;;;;4.28;3.05;;;28.20;59.80;;;;;;13115303;22;20253;-89
2022/07/19 15:45:54;;;;;;;3.60;2.85;;;29.20;56.10;;;;;;13115636;22;20168;-89
2022/07/19 15:50:57;;;;;;;3.60;2.85;;;28.50;58.80;;;;;;13115785;22;20222;-89
2022/07/19 15:56:00;;;;;;;4.75;2.75;;;27.90;60.00;;;;;;13115752;22;20168;-89
2022/07/19 16:01:03;;;;;;;6.97;3.03;;;28.00;63.40;;;;;;13088465;22;20211;-89
2022/07/19 16:06:06;;;;;;;9.88;3.35;;;29.10;62.60;;;;;;13115734;22;20677;-88
2022/07/19 16:11:08;;;;;;;2.72;1.98;;;29.30;57.80;;;;;;13088443;22;20168;-89
2022/07/19 16:16:11;;;;;;;12.38;3.55;;;29.10;63.10;;;;;;13092702;22;20194;-88
2022/07/19 16:21:13;;;;;;;7.45;2.85;;;29.30;61.20;;;;;;13093371;22;20229;-89
2022/07/19 16:26:16;;;;;;;5.15;3.00;;;30.20;53.20;;;;;;13096877;22;20510;-89
2022/07/19 16:31:19;;;;;;;4.15;2.45;;;30.40;55.60;;;;;;13090155;22;20184;-89
2022/07/19 16:36:22;;;;;;;3.28;2.97;;;29.80;60.90;;;;;;13090575;22;20564;-89
2022/07/19 16:41:24;;;;;;;8.68;3.33;;;30.10;59.00;;;;;;13119614;22;20246;-89
2022/07/19 16:46:29;;;;;;;6.47;3.05;;;30.50;58.30;;;;;;13091444;22;20173;-89
2022/07/19 16:51:31;;;;;;;4.30;3.38;;;30.20;55.10;;;;;;13090871;22;20172;-89
2022/07/19 16:56:34;;;;;;;5.80;3.35;;;30.50;54.30;;;;;;13090339;22;20177;-89
2022/07/19 17:01:37;;;;;;;12.02;3.70;;;30.70;54.10;;;;;;13138198;22;20245;-89
2022/07/19 17:06:39;;;;;;;4.38;3.72;;;30.90;56.00;;;;;;13137960;22;20188;-89
2022/07/19 17:11:42;;;;;;;6.78;3.83;;;30.70;58.40;;;;;;13118658;22;20194;-89
2022/07/19 17:16:45;;;;;;;8.77;3.83;;;;;;;;;;13091065;22;20514;-89
2022/07/19 17:21:48;;;;;;;7.30;3.65;;;30.50;57.30;;;;;;13091885;22;20184;-89
2022/07/19 17:26:50;;;;;;;8.23;3.40;;;30.40;60.70;;;;;;13117509;22;20187;-89
2022/07/19 17:31:53;;;;;;;5.97;3.75;;;30.30;65.70;;;;;;13089939;22;20172;-89
2022/07/19 17:36:56;;;;;;;5.15;3.67;;;30.00;64.20;;;;;;13117931;22;20168;-89
2022/07/19 17:41:58;;;;;;;8.40;4.03;;;29.70;62.50;;;;;;13090787;22;20176;-89
2022/07/19 17:47:01;;;;;;;6.80;3.92;;;29.50;67.70;;;;;;13089509;22;20222;-89
2022/07/19 17:52:04;;;;;;;8.85;4.28;;;29.30;73.10;;;;;;13117931;22;20165;-89
2022/07/19 17:57:07;;;;;;;9.00;4.25;;;29.00;75.40;;;;;;13117983;22;20645;-89
2022/07/19 18:02:09;;;;;;;13.75;4.03;;;28.70;73.30;;;;;;13135858;22;20184;-89
2022/07/19 18:07:32;;;;;;;19.25;4.35;;;28.40;75.40;;;;;;13089103;22;20512;-89
2022/07/19 18:12:35;;;;;;;6.95;4.15;;;28.00;90.40;;;;;;13108723;22;20211;-89
2022/07/19 18:17:37;;;;;;;14.68;5.20;;;27.60;85.70;;;;;;13117589;22;20495;-89
2022/07/19 18:22:40;;;;;;;12.85;4.63;;;27.40;82.50;;;;;;13117981;22;20285;-89
2022/07/19 18:27:43;;;;;;;9.68;4.45;;;26.90;90.90;;;;;;13089011;22;20173;-89
2022/07/19 18:32:46;;;;;;;14.07;4.68;;;26.50;94.40;;;;;;13117745;22;20168;-89
2022/07/19 18:37:51;;;;;;;14.23;4.15;;;26.20;96.40;;;;;;13088412;22;20207;-90
2022/07/19 18:42:53;;;;;;;10.60;4.85;;;25.70;97.00;;;;;;13088172;22;20173;-89
2022/07/19 18:47:56;;;;;;;8.60;4.45;;;25.40;99.90;;;;;;13088333;22;20176;-90
2022/07/19 18:52:58;;;;;;;14.63;4.88;;;25.00;99.90;;;;;;13089580;22;20164;-90
2022/07/19 18:58:01;;;;;;;13.95;4.57;;;24.70;99.90;;;;;;13089458;22;20480;-89
2022/07/19 19:03:04;;;;;;;7.30;4.88;;;;;;;;;;13088401;22;20203;-89
2022/07/19 19:08:08;;;;;;;12.95;5.15;;;24.10;99.90;;;;;;13116877;22;20222;-90
2022/07/19 19:13:11;;;;;;;11.32;5.65;;;23.90;99.90;;;;;;13089096;22;20692;-89
2022/07/19 19:18:13;;;;;;;3.95;3.55;;;23.60;99.90;;;;;;13087923;22;20696;-89
2022/07/19 19:23:16;;;;;;;2.67;2.25;;;23.50;99.90;;;;;;13116290;22;20509;-89
2022/07/19 19:28:19;;;;;;;2.70;2.50;;;23.50;99.90;;;;;;13062798;22;20566;-89
2022/07/19 19:33:22;;;;;;;2.25;2.03;;;23.60;99.90;;;;;;13088224;22;20206;-89
2022/07/19 19:38:26;;;;;;;2.38;2.17;;;23.50;99.90;;;;;;13116388;22;20269;-89
2022/07/19 19:43:29;;;;;;;3.28;2.92;;;23.50;99.80;;;;;;13116428;22;20206;-89
2022/07/19 19:48:31;;;;;;;2.42;2.20;;;23.40;99.90;;;;;;13087381;22;20176;-89
2022/07/19 19:53:34;;;;;;;2.90;2.30;;;23.30;99.90;;;;;;13088529;22;20237;-89
2022/07/19 19:58:37;;;;;;;2.95;2.45;;;23.30;99.90;;;;;;13116332;22;20233;-89
2022/07/19 20:03:39;;;;;;;2.60;2.35;;;23.30;99.90;;;;;;13088794;22;20561;-89
2022/07/19 20:08:42;;;;;;;2.78;2.42;;;23.30;99.90;;;;;;13062572;22;20180;-89
2022/07/19 20:13:44;;;;;;;3.22;2.83;;;23.30;99.90;;;;;;13116204;22;20194;-88
2022/07/19 20:18:47;;;;;;;3.03;2.25;;;23.20;99.90;;;;;;13116019;22;20180;-89
2022/07/19 20:23:50;;;;;;;3.22;2.78;;;23.10;99.90;;;;;;13088879;22;20168;-89
2022/07/19 20:28:53;;;;;;;2.58;2.38;;;23.10;99.90;;;;;;13088828;22;20164;-89
2022/07/19 20:33:55;;;;;;;2.20;2.00;;;23.10;99.90;;;;;;13113877;22;20564;-88
2022/07/19 20:38:58;;;;;;;3.60;3.08;;;23.20;99.90;;;;;;13115908;22;20242;-89
2022/07/19 20:44:00;;;;;;;2.65;2.45;;;23.10;99.90;;;;;;13115480;22;20161;-89
2022/07/19 20:49:03;;;;;;;2.75;2.55;;;23.10;99.90;;;;;;13115630;22;20165;-89
2022/07/19 20:54:06;;;;;;;2.30;2.10;;;23.00;99.90;;;;;;13088148;22;20169;-89
2022/07/19 20:59:10;;;;;;;3.38;2.60;;;23.00;99.90;;;;;;13089919;22;20180;-88
2022/07/19 21:04:12;;;;;;;2.70;2.13;;;23.00;99.90;;;;;;13118863;22;20616;-89
2022/07/19 21:09:15;;;;;;;4.30;2.55;;;22.90;99.90;;;;;;13065269;22;20206;-89
2022/07/19 21:14:17;;;;;;;2.63;2.35;;;22.90;99.90;;;;;;13119252;22;20168;-89
2022/07/19 21:19:20;;;;;;;2.92;2.40;;;22.90;99.90;;;;;;13091536;22;20185;-89
2022/07/19 21:24:26;;;;;;;2.47;2.22;;;22.90;99.90;;;;;;13090069;22;20176;-89
2022/07/19 21:29:29;;;;;;;2.85;2.45;;;22.90;99.90;;;;;;13118655;22;20187;-89
2022/07/19 21:34:32;;;;;;;3.67;2.30;;;22.90;99.90;;;;;;13065068;22;20515;-89
2022/07/19 21:39:34;;;;;;;2.63;2.42;;;22.80;99.90;;;;;;13118240;22;20269;-89
2022/07/19 21:44:37;;;;;;;2.60;2.40;;;22.80;99.90;;;;;;13064960;22;20562;-89
2022/07/19 21:49:40;;;;;;;3.63;2.70;;;22.80;99.90;;;;;;13118150;22;20190;-89
2022/07/19 21:54:42;;;;;;;2.70;2.50;;;22.80;99.90;;;;;;13118033;22;20202;-89
2022/07/19 21:59:50;;;;;;;3.20;2.90;;;22.80;99.90;;;;;;13110944;22;20184;-88
2022/07/19 22:04:53;;;;;;;2.40;2.20;;;22.70;99.90;;;;;;13090131;22;20538;-89
2022/07/19 22:09:56;;;;;;;3.17;2.85;;;22.70;99.90;;;;;;13117883;22;20218;-89
2022/07/19 22:15:00;;;;;;;3.28;2.97;;;22.70;99.90;;;;;;13091054;22;20164;-88
2022/07/19 22:20:03;;;;;;;3.33;2.92;;;22.70;99.90;;;;;;13063994;22;20269;-89
2022/07/19 22:25:06;;;;;;;4.43;3.22;;;22.70;99.90;;;;;;13128751;22;20211;-89
2022/07/19 22:30:09;;;;;;;2.88;2.50;;;22.70;99.90;;;;;;13117306;22;20165;-89
2022/07/19 22:35:12;;;;;;;4.55;3.20;;;22.70;99.90;;;;;;13118305;22;20537;-89
2022/07/19 22:40:14;;;;;;;4.45;3.10;;;22.70;99.90;;;;;;13117219;22;20196;-89
2022/07/19 22:45:17;;;;;;;3.45;2.78;;;22.70;99.90;;;;;;13117562;22;20160;-89
2022/07/19 22:50:20;;;;;;;4.45;2.95;;;22.70;99.90;;;;;;13117850;22;20214;-89
2022/07/19 22:55:23;;;;;;;4.53;3.05;;;22.60;99.90;;;;;;13116998;22;20217;-88
2022/07/19 23:00:26;;;;;;;3.88;3.00;;;22.60;99.90;;;;;;13089624;22;20526;-88
2022/07/19 23:05:28;;;;;;;3.30;3.00;;;22.70;99.90;;;;;;13090315;22;20161;-88
2022/07/19 23:10:31;;;;;;;4.25;3.35;;;22.60;99.90;;;;;;13088100;22;20206;-89
2022/07/19 23:15:33;;;;;;;3.15;2.90;;;22.60;99.90;;;;;;13089817;22;20218;-89
2022/07/19 23:20:36;;;;;;;4.82;3.38;;;22.60;99.90;;;;;;13088127;22;20666;-88
2022/07/19 23:25:38;;;;;;;3.25;2.85;;;22.60;99.90;;;;;;13116654;22;20569;-89
2022/07/19 23:30:41;;;;;;;3.15;2.85;;;22.60;99.90;;;;;;13063455;22;20176;-89
2022/07/19 23:35:44;;;;;;;3.53;3.22;;;22.60;99.90;;;;;;13116515;22;20210;-89
2022/07/19 23:40:46;;;;;;;5.00;3.10;;;22.60;99.90;;;;;;13062343;22;20254;-89
2022/07/19 23:45:49;;;;;;;3.90;2.92;;;22.60;99.90;;;;;;13089799;22;20201;-89
2022/07/19 23:50:52;;;;;;;4.40;2.90;;;22.60;99.90;;;;;;13116906;22;20164;-88
2022/07/19 23:55:55;;;;;;;4.07;3.28;;;22.60;99.90;;;;;;13116167;22;20169;-89
